createdAt,value
2018-07-20T00:00:17.194Z,92.60
2018-07-20T00:02:46.519Z,93.10
2018-07-20T00:05:15.862Z,93.00
2018-07-20T00:07:45.224Z,93.60
2018-07-20T00:10:14.570Z,94.10
2018-07-20T00:12:44.331Z,94.10
2018-07-20T00:15:13.663Z,93.30
2018-07-20T00:20:11.903Z,94.40
2018-07-20T00:22:41.301Z,93.10
2018-07-20T00:25:10.630Z,94.80
2018-07-20T00:27:39.950Z,95.60
2018-07-20T00:30:09.287Z,95.20
2018-07-20T00:32:38.647Z,95.40
2018-07-20T00:35:07.988Z,95.70
2018-07-20T00:37:37.313Z,95.10
2018-07-20T00:40:06.652Z,96.10
2018-07-20T00:45:04.823Z,97.60
2018-07-20T00:47:34.175Z,97.00
2018-07-20T00:50:04.047Z,95.60
2018-07-20T00:55:02.406Z,97.20
2018-07-20T00:57:31.828Z,97.30
2018-07-20T01:00:01.148Z,98.50
2018-07-20T01:02:30.556Z,98.30
2018-07-20T01:09:57.726Z,99.90
2018-07-20T01:12:27.099Z,99.90
2018-07-20T01:14:56.420Z,99.90
2018-07-20T01:19:54.705Z,99.90
2018-07-20T01:22:24.059Z,99.90
2018-07-20T01:24:53.636Z,99.90
2018-07-20T01:27:22.998Z,99.90
2018-07-20T01:29:52.323Z,99.90
2018-07-20T01:32:21.684Z,99.90
2018-07-20T01:34:51.014Z,99.90
2018-07-20T01:39:49.194Z,99.90
2018-07-20T01:42:18.552Z,99.90
2018-07-20T01:44:47.866Z,99.90
2018-07-20T01:47:17.478Z,99.90
2018-07-20T01:49:46.783Z,99.90
2018-07-20T01:52:16.098Z,99.90
2018-07-20T01:54:45.447Z,99.90
2018-07-20T01:57:14.746Z,99.90
2018-07-20T01:59:44.110Z,99.90
2018-07-20T02:02:13.413Z,99.90
2018-07-20T02:04:42.778Z,99.90
2018-07-20T02:07:12.122Z,99.90
2018-07-20T02:09:41.527Z,99.90
2018-07-20T02:12:11.164Z,99.90
2018-07-20T02:14:40.507Z,99.90
2018-07-20T02:17:09.836Z,99.90
2018-07-20T02:24:36.911Z,99.90
2018-07-20T02:27:06.257Z,99.90
2018-07-20T02:29:35.637Z,99.90
2018-07-20T02:34:33.855Z,99.90
2018-07-20T02:37:03.192Z,99.90
2018-07-20T02:42:01.392Z,99.90
2018-07-20T02:44:30.768Z,99.90
2018-07-20T02:47:00.104Z,99.90
2018-07-20T02:49:29.432Z,99.90
2018-07-20T02:51:58.816Z,99.90
2018-07-20T02:54:28.127Z,99.90
2018-07-20T02:56:57.491Z,99.90
2018-07-20T02:59:26.790Z,99.90
2018-07-20T03:01:56.151Z,99.90
2018-07-20T03:04:25.482Z,99.90
2018-07-20T03:06:54.858Z,99.90
2018-07-20T03:09:24.224Z,99.90
2018-07-20T03:11:53.582Z,99.90
2018-07-20T03:14:22.995Z,99.90
2018-07-20T03:16:52.360Z,99.90
2018-07-20T03:19:21.677Z,99.90
2018-07-20T03:21:51.037Z,99.90
2018-07-20T03:24:20.343Z,99.90
2018-07-20T03:26:49.695Z,99.90
2018-07-20T03:29:19.038Z,99.90
2018-07-20T03:31:48.379Z,99.90
2018-07-20T03:34:17.708Z,99.90
2018-07-20T03:36:47.066Z,99.90
2018-07-20T03:39:16.367Z,99.90
2018-07-20T03:41:45.727Z,99.90
2018-07-20T03:44:15.055Z,99.90
2018-07-20T03:46:44.419Z,99.90
2018-07-20T03:49:13.714Z,99.90
2018-07-20T03:51:43.027Z,99.90
2018-07-20T03:54:12.375Z,99.90
2018-07-20T03:56:41.717Z,99.90
2018-07-20T03:59:11.031Z,99.90
2018-07-20T04:01:40.407Z,99.90
2018-07-20T04:04:09.752Z,99.90
2018-07-20T04:06:39.103Z,99.90
2018-07-20T04:09:09.546Z,99.90
2018-07-20T04:11:39.030Z,99.90
2018-07-20T04:14:08.607Z,99.90
2018-07-20T04:16:38.122Z,99.90
2018-07-20T04:19:07.551Z,99.90
2018-07-20T04:21:36.899Z,99.90
2018-07-20T04:24:06.245Z,99.90
2018-07-20T04:26:35.543Z,99.90
2018-07-20T04:29:04.949Z,99.90
2018-07-20T04:31:34.272Z,99.90
2018-07-20T04:34:03.614Z,99.90
2018-07-20T04:36:32.994Z,99.90
2018-07-20T04:41:31.263Z,99.90
2018-07-20T04:44:00.581Z,99.90
2018-07-20T04:46:29.947Z,99.90
2018-07-20T04:48:59.259Z,99.90
2018-07-20T04:51:28.604Z,99.90
2018-07-20T04:56:26.864Z,99.90
2018-07-20T04:58:56.263Z,99.90
2018-07-20T05:01:25.617Z,99.90
2018-07-20T05:03:55.094Z,99.90
2018-07-20T05:06:24.462Z,99.90
2018-07-20T05:08:53.817Z,99.90
2018-07-20T05:11:23.236Z,99.90
2018-07-20T05:13:52.515Z,99.90
2018-07-20T05:16:21.862Z,99.90
2018-07-20T05:18:51.183Z,99.90
2018-07-20T05:21:20.533Z,99.90
2018-07-20T05:23:49.879Z,99.90
2018-07-20T05:26:19.219Z,99.90
2018-07-20T05:28:48.555Z,99.90
2018-07-20T05:31:18.089Z,99.90
2018-07-20T05:33:47.403Z,99.90
2018-07-20T05:36:16.758Z,99.90
2018-07-20T05:38:46.082Z,99.90
2018-07-20T05:41:15.440Z,99.90
2018-07-20T05:43:45.890Z,99.90
2018-07-20T05:48:44.095Z,99.90
2018-07-20T05:51:13.641Z,99.90
2018-07-20T05:53:42.983Z,99.90
2018-07-20T05:56:12.643Z,99.90
2018-07-20T05:58:41.985Z,99.90
2018-07-20T06:01:11.315Z,99.90
2018-07-20T06:03:40.670Z,99.90
2018-07-20T06:06:10.199Z,99.90
2018-07-20T06:08:39.575Z,99.90
2018-07-20T06:11:08.886Z,99.90
2018-07-20T06:13:38.276Z,99.90
2018-07-20T06:16:07.607Z,99.90
2018-07-20T06:21:08.382Z,99.90
2018-07-20T06:23:37.845Z,99.90
2018-07-20T06:26:07.199Z,99.90
2018-07-20T06:28:36.571Z,99.90
2018-07-20T06:33:35.396Z,99.90
2018-07-20T06:36:05.348Z,99.90
2018-07-20T06:38:34.666Z,99.90
2018-07-20T06:41:04.055Z,99.90
2018-07-20T06:43:33.375Z,99.90
2018-07-20T06:46:02.716Z,99.90
2018-07-20T06:48:32.047Z,99.90
2018-07-20T06:51:01.431Z,99.90
2018-07-20T06:55:59.672Z,99.90
2018-07-20T06:58:28.963Z,99.90
2018-07-20T07:00:58.327Z,99.90
2018-07-20T07:03:27.625Z,99.90
2018-07-20T07:05:56.975Z,99.20
2018-07-20T07:10:55.240Z,99.90
2018-07-20T07:13:24.581Z,99.20
2018-07-20T07:15:53.943Z,99.20
2018-07-20T07:28:19.281Z,99.00
2018-07-20T07:30:48.608Z,97.90
2018-07-20T07:33:17.979Z,96.80
2018-07-20T07:35:47.347Z,96.90
2018-07-20T07:43:14.404Z,97.10
2018-07-20T07:45:43.729Z,98.00
2018-07-20T07:48:13.063Z,97.30
2018-07-20T07:50:42.405Z,97.80
2018-07-20T07:53:11.776Z,97.10
2018-07-20T07:55:41.066Z,97.20
2018-07-20T07:58:10.403Z,96.50
2018-07-20T08:00:39.807Z,97.20
2018-07-20T08:03:09.207Z,97.80
2018-07-20T08:05:38.561Z,96.80
2018-07-20T08:08:07.957Z,97.30
2018-07-20T08:10:37.323Z,96.60
2018-07-20T08:13:06.686Z,95.40
2018-07-20T08:15:36.054Z,95.40
2018-07-20T08:18:05.448Z,95.40
2018-07-20T08:20:34.851Z,95.80
2018-07-20T08:23:04.216Z,95.40
2018-07-20T08:25:33.643Z,96.10
2018-07-20T08:28:02.979Z,94.90
2018-07-20T08:30:32.352Z,93.10
2018-07-20T08:33:01.747Z,93.40
2018-07-20T08:38:00.020Z,93.80
2018-07-20T08:40:29.843Z,93.20
2018-07-20T08:42:59.505Z,91.40
2018-07-20T08:45:30.010Z,91.10
2018-07-20T08:47:59.603Z,90.10
2018-07-20T08:50:29.442Z,90.60
2018-07-20T08:52:59.167Z,88.90
2018-07-20T08:55:28.921Z,87.30
2018-07-20T08:57:58.509Z,83.60
2018-07-20T09:00:27.916Z,84.70
2018-07-20T09:02:57.377Z,82.70
2018-07-20T09:05:27.283Z,81.50
2018-07-20T09:07:56.686Z,76.80
2018-07-20T09:10:26.043Z,78.50
2018-07-20T09:12:55.383Z,78.60
2018-07-20T09:20:22.610Z,75.90
2018-07-20T09:22:51.963Z,76.30
2018-07-20T09:25:21.488Z,73.40
2018-07-20T09:27:50.926Z,70.10
2018-07-20T09:30:20.417Z,68.80
2018-07-20T09:32:49.795Z,70.30
2018-07-20T09:37:48.105Z,64.90
2018-07-20T09:40:17.544Z,60.30
2018-07-20T09:42:47.051Z,62.80
2018-07-20T09:45:16.351Z,58.90
2018-07-20T09:47:45.732Z,60.10
2018-07-20T09:50:15.049Z,58.70
2018-07-20T09:52:44.399Z,58.70
2018-07-20T09:55:13.822Z,56.60
2018-07-20T10:00:12.132Z,55.20
2018-07-20T10:02:41.483Z,57.00
2018-07-20T10:05:10.800Z,55.70
2018-07-20T10:07:40.330Z,56.20
2018-07-20T10:10:09.665Z,55.50
2018-07-20T10:15:07.890Z,55.50
2018-07-20T10:17:37.246Z,54.10
2018-07-20T10:20:06.553Z,52.90
2018-07-20T10:25:04.770Z,51.80
2018-07-20T10:27:34.115Z,51.00
2018-07-20T10:30:03.835Z,51.00
2018-07-20T10:32:33.208Z,48.50
2018-07-20T10:35:02.520Z,48.00
2018-07-20T10:37:31.923Z,48.20
2018-07-20T10:40:01.249Z,49.50
2018-07-20T10:47:28.711Z,46.50
2018-07-20T10:49:58.042Z,47.60
2018-07-20T10:52:27.400Z,46.80
2018-07-20T10:54:56.816Z,46.40
2018-07-20T10:57:26.117Z,46.10
2018-07-20T10:59:55.456Z,45.80
2018-07-20T11:02:24.784Z,46.00
2018-07-20T11:04:54.156Z,46.00
2018-07-20T11:09:52.392Z,47.30
2018-07-20T11:12:21.726Z,47.10
2018-07-20T11:14:51.036Z,46.20
2018-07-20T11:17:20.393Z,44.50
2018-07-20T11:19:49.867Z,45.10
2018-07-20T11:22:19.197Z,45.10
2018-07-20T11:24:48.552Z,46.30
2018-07-20T11:27:17.905Z,45.90
2018-07-20T11:29:47.275Z,47.10
2018-07-20T11:32:16.982Z,47.10
2018-07-20T11:34:46.897Z,46.90
2018-07-20T11:37:16.747Z,47.00
2018-07-20T11:44:43.920Z,46.70
2018-07-20T11:47:13.239Z,46.00
2018-07-20T11:49:42.605Z,46.00
2018-07-20T11:52:12.108Z,46.80
2018-07-20T11:54:41.436Z,45.90
2018-07-20T11:59:39.844Z,44.60
2018-07-20T12:02:10.172Z,44.10
2018-07-20T12:04:39.490Z,44.90
2018-07-20T12:07:08.844Z,44.40
2018-07-20T12:09:38.228Z,43.40
2018-07-20T12:12:07.637Z,42.60
2018-07-20T12:14:36.992Z,42.60
2018-07-20T12:17:06.359Z,42.80
2018-07-20T12:19:35.799Z,43.60
2018-07-20T12:22:05.108Z,43.80
2018-07-20T12:24:34.432Z,43.30
2018-07-20T12:27:03.791Z,44.00
2018-07-20T12:29:33.122Z,42.90
2018-07-20T12:32:02.463Z,43.70
2018-07-20T12:34:31.780Z,45.40
2018-07-20T12:37:01.132Z,45.70
2018-07-20T12:39:30.451Z,47.80
2018-07-20T12:47:03.833Z,47.10
2018-07-20T12:49:33.154Z,45.00
2018-07-20T12:52:02.454Z,44.70
2018-07-20T12:54:31.779Z,44.80
2018-07-20T12:57:01.102Z,45.10
2018-07-20T12:59:30.451Z,43.30
2018-07-20T13:01:59.839Z,43.80
2018-07-20T13:04:29.203Z,45.10
2018-07-20T13:06:58.539Z,46.30
2018-07-20T13:09:27.928Z,46.30
2018-07-20T13:11:57.325Z,46.50
2018-07-20T13:14:26.647Z,46.60
2018-07-20T13:16:55.941Z,47.10
2018-07-20T13:19:25.287Z,47.30
2018-07-20T13:21:54.583Z,46.70
2018-07-20T13:24:23.928Z,47.60
2018-07-20T13:26:53.245Z,46.80
2018-07-20T13:29:22.614Z,47.30
2018-07-20T13:31:51.928Z,46.60
2018-07-20T13:34:21.295Z,47.10
2018-07-20T13:36:50.651Z,47.50
2018-07-20T13:39:20.007Z,47.90
2018-07-20T13:41:49.984Z,48.60
2018-07-20T13:44:19.398Z,49.00
2018-07-20T13:46:49.257Z,48.10
2018-07-20T13:49:18.970Z,47.80
2018-07-20T13:51:48.351Z,48.20
2018-07-20T13:54:17.647Z,48.00
2018-07-20T13:56:46.992Z,47.90
2018-07-20T13:59:16.288Z,47.90
2018-07-20T14:01:45.627Z,47.60
2018-07-20T14:04:15.845Z,47.00
2018-07-20T14:06:45.232Z,47.70
2018-07-20T14:09:14.571Z,48.00
2018-07-20T14:11:43.943Z,47.90
2018-07-20T14:14:13.239Z,48.00
2018-07-20T14:16:42.701Z,47.80
2018-07-20T14:19:12.024Z,48.20
2018-07-20T14:21:41.559Z,48.80
2018-07-20T14:24:10.892Z,48.50
2018-07-20T14:26:40.351Z,49.70
2018-07-20T14:31:38.729Z,48.80
2018-07-20T14:34:08.019Z,48.80
2018-07-20T14:36:38.146Z,48.80
2018-07-20T14:41:37.319Z,49.30
2018-07-20T14:46:35.741Z,49.70
2018-07-20T14:49:05.118Z,49.50
2018-07-20T14:51:34.498Z,49.70
2018-07-20T14:54:03.839Z,49.60
2018-07-20T14:59:02.100Z,49.70
2018-07-20T15:01:31.480Z,49.90
2018-07-20T15:04:00.807Z,49.20
2018-07-20T15:06:30.203Z,49.00
2018-07-20T15:08:59.568Z,50.20
2018-07-20T15:16:26.784Z,50.60
2018-07-20T15:18:56.116Z,52.30
2018-07-20T15:21:25.423Z,50.10
2018-07-20T15:23:54.801Z,51.00
2018-07-20T15:26:24.133Z,51.30
2018-07-20T15:28:53.500Z,51.40
2018-07-20T15:31:22.855Z,51.20
2018-07-20T15:33:52.246Z,51.50
2018-07-20T15:36:21.556Z,50.20
2018-07-20T15:38:50.936Z,50.40
2018-07-20T15:41:20.268Z,49.50
2018-07-20T15:43:49.628Z,50.10
2018-07-20T15:46:19.219Z,50.40
2018-07-20T15:48:48.499Z,50.30
2018-07-20T15:51:17.790Z,50.70
2018-07-20T15:53:47.195Z,49.80
2018-07-20T15:56:16.519Z,50.50
2018-07-20T15:58:45.844Z,49.80
2018-07-20T16:01:15.143Z,49.20
2018-07-20T16:03:44.483Z,50.00
2018-07-20T16:06:13.864Z,49.30
2018-07-20T16:08:43.247Z,50.80
2018-07-20T16:11:12.558Z,50.20
2018-07-20T16:13:41.875Z,50.60
2018-07-20T16:16:11.224Z,50.20
2018-07-20T16:21:09.399Z,49.40
2018-07-20T16:23:38.700Z,49.90
2018-07-20T16:26:08.214Z,50.50
2018-07-20T16:28:37.440Z,50.80
2018-07-20T16:31:06.820Z,50.30
2018-07-20T16:33:36.159Z,50.70
2018-07-20T16:36:05.511Z,50.60
2018-07-20T16:38:34.871Z,50.20
2018-07-20T16:43:33.098Z,50.90
2018-07-20T16:46:02.426Z,50.20
2018-07-20T16:48:31.763Z,51.10
2018-07-20T16:51:01.104Z,50.80
2018-07-20T16:53:30.465Z,50.50
2018-07-20T16:55:59.824Z,50.40
2018-07-20T16:58:29.127Z,51.20
2018-07-20T17:00:58.551Z,50.40
2018-07-20T17:03:27.903Z,50.40
2018-07-20T17:05:57.248Z,51.40
2018-07-20T17:08:26.588Z,50.60
2018-07-20T17:10:55.955Z,50.50
2018-07-20T17:13:25.286Z,51.20
2018-07-20T17:15:54.671Z,51.00
2018-07-20T17:18:24.004Z,51.80
2018-07-20T17:20:53.338Z,51.70
2018-07-20T17:23:22.656Z,50.90
2018-07-20T17:25:51.969Z,51.60
2018-07-20T17:28:21.292Z,51.60
2018-07-20T17:30:50.606Z,51.00
2018-07-20T17:33:19.932Z,51.30
2018-07-20T17:35:49.266Z,51.70
2018-07-20T17:38:18.679Z,51.40
2018-07-20T17:40:48.466Z,51.70
2018-07-20T17:43:17.855Z,51.90
2018-07-20T17:45:47.208Z,52.30
2018-07-20T17:48:16.571Z,52.40
2018-07-20T17:50:45.913Z,51.80
2018-07-20T17:53:15.372Z,52.00
2018-07-20T17:55:44.709Z,52.80
2018-07-20T17:58:14.077Z,52.60
2018-07-20T18:00:43.415Z,52.90
2018-07-20T18:03:12.844Z,52.90
2018-07-20T18:05:42.170Z,52.90
2018-07-20T18:08:11.533Z,53.40
2018-07-20T18:10:40.883Z,54.00
2018-07-20T18:13:10.223Z,54.70
2018-07-20T18:15:39.549Z,54.40
2018-07-20T18:18:08.910Z,54.70
2018-07-20T18:20:38.211Z,54.30
2018-07-20T18:23:07.888Z,54.40
2018-07-20T18:25:37.289Z,54.50
2018-07-20T18:28:06.600Z,54.40
2018-07-20T18:33:05.012Z,55.30
2018-07-20T18:35:34.355Z,55.80
2018-07-20T18:38:03.684Z,57.90
2018-07-20T18:40:33.207Z,59.60
2018-07-20T18:43:02.967Z,61.90
2018-07-20T18:45:32.743Z,63.50
2018-07-20T18:48:02.239Z,65.00
2018-07-20T18:50:31.592Z,60.40
2018-07-20T18:53:01.511Z,61.60
2018-07-20T18:55:31.440Z,64.90
2018-07-20T18:58:01.041Z,67.00
2018-07-20T19:00:30.989Z,68.00
2018-07-20T19:03:00.447Z,64.60
2018-07-20T19:05:29.973Z,66.00
2018-07-20T19:07:59.667Z,68.50
2018-07-20T19:10:29.855Z,70.40
2018-07-20T19:12:59.507Z,71.40
2018-07-20T19:15:29.148Z,69.80
2018-07-20T19:17:58.839Z,69.10
2018-07-20T19:20:28.380Z,68.20
2018-07-20T19:22:58.836Z,67.10
2018-07-20T19:25:29.204Z,66.10
2018-07-20T19:27:59.417Z,66.30
2018-07-20T19:30:29.377Z,66.10
2018-07-20T19:32:58.751Z,66.90
2018-07-20T19:35:28.142Z,66.10
2018-07-20T19:37:57.574Z,66.10
2018-07-20T19:40:26.968Z,65.90
2018-07-20T19:42:56.331Z,67.50
2018-07-20T19:45:25.647Z,68.60
2018-07-20T19:52:53.628Z,77.40
2018-07-20T19:55:23.374Z,78.60
2018-07-20T19:57:53.200Z,79.80
2018-07-20T20:00:22.900Z,80.70
2018-07-20T20:02:52.483Z,82.40
2018-07-20T20:05:21.858Z,83.80
2018-07-20T20:07:51.273Z,87.30
2018-07-20T20:12:49.869Z,97.90
2018-07-20T20:15:19.512Z,99.90
2018-07-20T20:17:49.249Z,99.90
2018-07-20T20:20:18.852Z,99.90
2018-07-20T20:22:48.587Z,99.90
2018-07-20T20:25:18.639Z,99.90
2018-07-20T20:27:48.148Z,99.90
2018-07-20T20:30:17.615Z,99.90
2018-07-20T20:32:47.218Z,99.90
2018-07-20T20:35:16.695Z,99.90
2018-07-20T20:37:46.311Z,99.90
2018-07-20T20:40:15.984Z,99.90
2018-07-20T20:42:45.472Z,99.90
2018-07-20T20:45:14.819Z,99.90
2018-07-20T20:50:13.110Z,99.90
2018-07-20T20:52:42.451Z,99.90
2018-07-20T20:55:11.798Z,99.90
2018-07-20T20:57:41.143Z,99.90
2018-07-20T21:00:10.715Z,99.90
2018-07-20T21:02:40.062Z,99.90
2018-07-20T21:05:09.462Z,99.90
2018-07-20T21:07:38.883Z,99.90
2018-07-20T21:10:08.311Z,99.90
2018-07-20T21:12:37.657Z,99.90
2018-07-20T21:15:07.873Z,99.90
2018-07-20T21:17:37.214Z,99.90
2018-07-20T21:20:06.570Z,99.90
2018-07-20T21:22:35.899Z,99.90
2018-07-20T21:25:06.262Z,99.90
2018-07-20T21:30:05.027Z,99.90
2018-07-20T21:32:34.444Z,99.90
2018-07-20T21:35:03.760Z,99.90
2018-07-20T21:40:02.350Z,99.90
2018-07-20T21:42:31.763Z,99.90
2018-07-20T21:45:01.087Z,99.90
2018-07-20T21:49:59.339Z,99.90
2018-07-20T21:52:28.691Z,99.90
2018-07-20T21:54:58.231Z,99.90
2018-07-20T21:59:56.476Z,99.90
2018-07-20T22:02:25.836Z,99.90
2018-07-20T22:07:24.184Z,99.90
2018-07-20T22:09:54.002Z,99.90
2018-07-20T22:14:52.422Z,99.90
2018-07-20T22:17:21.829Z,99.90
2018-07-20T22:19:51.161Z,99.90
2018-07-20T22:22:20.630Z,99.90
2018-07-20T22:24:49.939Z,99.90
2018-07-20T22:27:19.314Z,99.90
2018-07-20T22:29:48.677Z,99.90
2018-07-20T22:32:18.007Z,99.90
2018-07-20T22:34:47.431Z,99.90
2018-07-20T22:37:17.012Z,99.90
2018-07-20T22:39:46.419Z,99.90
2018-07-20T22:42:15.775Z,99.90
2018-07-20T22:44:45.143Z,99.90
2018-07-20T22:47:14.480Z,99.90
2018-07-20T22:49:43.871Z,99.90
2018-07-20T22:52:13.243Z,99.90
2018-07-20T22:54:42.594Z,99.90
2018-07-20T22:57:11.913Z,99.90
2018-07-20T22:59:41.301Z,99.90
2018-07-20T23:02:10.680Z,99.90
2018-07-20T23:07:08.903Z,99.90
2018-07-20T23:09:38.307Z,99.90
2018-07-20T23:12:07.688Z,99.90
2018-07-20T23:14:37.064Z,99.90
2018-07-20T23:17:06.438Z,99.90
2018-07-20T23:24:33.587Z,99.90
2018-07-20T23:27:02.935Z,99.90
2018-07-20T23:32:01.224Z,99.90
2018-07-20T23:34:30.589Z,99.90
2018-07-20T23:37:00.008Z,99.90
2018-07-20T23:39:29.348Z,99.90
2018-07-20T23:41:58.727Z,99.90
2018-07-20T23:44:28.071Z,99.90
2018-07-20T23:46:57.821Z,99.90
2018-07-20T23:49:27.119Z,99.90
2018-07-20T23:51:56.464Z,99.90
2018-07-20T23:54:25.770Z,99.90
2018-07-20T23:56:55.110Z,99.90
2018-07-20T23:59:24.409Z,99.90
